createdAt,value
2018-12-16T00:00:01.555Z,998.15
2018-12-16T00:05:01.879Z,998.41
2018-12-16T00:10:02.362Z,998.62
2018-12-16T00:15:01.592Z,998.64
2018-12-16T00:20:01.869Z,998.81
2018-12-16T00:25:02.133Z,998.77
2018-12-16T00:30:01.362Z,998.62
2018-12-16T00:35:01.588Z,998.52
2018-12-16T00:40:01.857Z,998.37
2018-12-16T00:45:02.102Z,998.18
2018-12-16T00:50:01.338Z,998.07
2018-12-16T00:55:01.553Z,997.92
2018-12-16T01:00:01.768Z,997.83
2018-12-16T01:05:02.086Z,997.7
2018-12-16T01:10:01.306Z,997.62
2018-12-16T01:15:01.570Z,997.59
2018-12-16T01:20:01.839Z,997.45
2018-12-16T01:25:02.105Z,997.38
2018-12-16T01:30:01.343Z,997.35
2018-12-16T01:35:01.672Z,997.27
2018-12-16T01:40:01.922Z,997.23
2018-12-16T01:45:02.203Z,997.14
2018-12-16T01:50:01.541Z,997.02
2018-12-16T01:55:01.964Z,997.04
2018-12-16T02:00:02.239Z,997
2018-12-16T02:05:01.618Z,996.9
2018-12-16T02:10:01.891Z,996.82
2018-12-16T02:15:03.580Z,996.61
2018-12-16T02:20:01.923Z,996.56
2018-12-16T02:25:01.613Z,996.33
2018-12-16T02:30:01.877Z,996.23
2018-12-16T02:35:02.122Z,996.25
2018-12-16T02:40:01.338Z,996.16
2018-12-16T02:45:01.570Z,996.07
2018-12-16T02:50:01.851Z,996.1
2018-12-16T02:55:02.133Z,996.11
2018-12-16T03:00:01.425Z,995.99
2018-12-16T03:05:01.670Z,995.91
2018-12-16T03:10:01.910Z,995.89
2018-12-16T03:15:02.378Z,995.72
2018-12-16T03:20:01.584Z,995.58
2018-12-16T03:25:01.967Z,995.51
2018-12-16T03:30:02.327Z,995.38
2018-12-16T03:35:01.607Z,995.25
2018-12-16T03:40:02.077Z,995.37
2018-12-16T03:45:01.403Z,995.39
2018-12-16T03:50:01.746Z,995.38
2018-12-16T03:55:02.109Z,995.33
2018-12-16T04:00:01.741Z,995.27
2018-12-16T04:05:01.999Z,995.37
2018-12-16T04:10:01.269Z,995.29
2018-12-16T04:15:01.742Z,995.33
2018-12-16T04:20:02.023Z,995.26
2018-12-16T04:25:01.301Z,995.23
2018-12-16T04:30:01.594Z,995.27
2018-12-16T04:35:01.872Z,995.19
2018-12-16T04:40:02.116Z,995.12
2018-12-16T04:45:01.381Z,995.31
2018-12-16T04:50:01.620Z,995.41
2018-12-16T04:55:01.916Z,995.29
2018-12-16T05:00:02.145Z,995.31
2018-12-16T05:05:01.440Z,995.29
2018-12-16T05:10:01.744Z,995.21
2018-12-16T05:15:02.026Z,995.02
2018-12-16T05:20:01.323Z,994.85
2018-12-16T05:25:01.573Z,994.82
2018-12-16T05:30:01.839Z,995.01
2018-12-16T05:35:02.116Z,995.1
2018-12-16T05:40:01.475Z,994.86
2018-12-16T05:45:01.784Z,995.05
2018-12-16T05:50:01.978Z,994.94
2018-12-16T05:55:02.215Z,995.11
2018-12-16T06:00:01.466Z,994.97
2018-12-16T06:05:01.731Z,994.92
2018-12-16T06:10:02.030Z,994.76
2018-12-16T06:15:01.342Z,994.85
2018-12-16T06:20:01.639Z,994.64
2018-12-16T06:25:01.965Z,994.65
2018-12-16T06:30:02.204Z,994.82
2018-12-16T06:35:01.506Z,994.67
2018-12-16T06:40:01.765Z,994.78
2018-12-16T06:45:02.000Z,994.81
2018-12-16T06:50:01.269Z,994.73
2018-12-16T06:55:01.544Z,994.73
2018-12-16T07:00:01.829Z,994.72
2018-12-16T07:05:02.097Z,994.7
2018-12-16T07:10:01.350Z,994.74
2018-12-16T07:15:01.628Z,994.8
2018-12-16T07:20:01.954Z,994.82
2018-12-16T07:25:02.214Z,994.71
2018-12-16T07:30:01.518Z,994.65
2018-12-16T07:35:01.836Z,994.72
2018-12-16T07:40:02.122Z,994.69
2018-12-16T07:45:01.475Z,994.81
2018-12-16T07:50:01.840Z,994.82
2018-12-16T07:55:02.242Z,994.83
2018-12-16T08:00:01.647Z,994.85
2018-12-16T08:05:02.013Z,995.01
2018-12-16T08:10:01.310Z,995.06
2018-12-16T08:15:01.596Z,995.24
2018-12-16T08:20:01.904Z,995.21
2018-12-16T08:25:02.132Z,995.21
2018-12-16T08:30:01.444Z,995.24
2018-12-16T08:35:01.716Z,995.27
2018-12-16T08:40:02.006Z,995.29
2018-12-16T08:45:01.280Z,995.27
2018-12-16T08:50:01.566Z,995.3
2018-12-16T08:55:01.844Z,995.24
2018-12-16T09:00:02.109Z,995.19
2018-12-16T09:05:01.375Z,995.32
2018-12-16T09:10:01.650Z,995.3
2018-12-16T09:15:01.912Z,995.33
2018-12-16T09:20:02.218Z,995.33
2018-12-16T09:25:01.490Z,995.35
2018-12-16T09:30:01.791Z,995.41
2018-12-16T09:35:02.105Z,995.4
2018-12-16T09:40:01.373Z,995.36
2018-12-16T09:45:01.669Z,995.29
2018-12-16T09:50:01.919Z,995.34
2018-12-16T09:55:02.159Z,995.29
2018-12-16T10:00:01.465Z,995.32
2018-12-16T10:05:01.706Z,995.48
2018-12-16T10:10:01.981Z,995.54
2018-12-16T10:15:02.214Z,995.43
2018-12-16T10:20:01.499Z,995.36
2018-12-16T10:25:01.750Z,995.25
2018-12-16T10:30:02.007Z,995.19
2018-12-16T10:35:01.329Z,995.21
2018-12-16T10:40:01.732Z,995.28
2018-12-16T10:45:02.002Z,995.23
2018-12-16T10:50:01.271Z,995.2
2018-12-16T10:55:01.591Z,995.25
2018-12-16T11:00:01.885Z,995.27
2018-12-16T11:05:02.121Z,995.25
2018-12-16T11:10:01.380Z,995.17
2018-12-16T11:15:01.697Z,995.28
2018-12-16T11:20:01.976Z,995.28
2018-12-16T11:25:06.241Z,995.18
2018-12-16T11:30:01.503Z,995.21
2018-12-16T11:35:01.813Z,995.22
2018-12-16T11:40:02.051Z,995.17
2018-12-16T11:45:01.316Z,995
2018-12-16T11:50:01.649Z,994.96
2018-12-16T11:55:01.945Z,994.98
2018-12-16T12:00:02.160Z,994.91
2018-12-16T12:05:01.471Z,994.97
2018-12-16T12:10:01.713Z,994.88
2018-12-16T12:15:01.995Z,994.83
2018-12-16T12:20:01.269Z,994.85
2018-12-16T12:25:01.558Z,994.93
2018-12-16T12:30:01.827Z,994.86
2018-12-16T12:35:02.110Z,994.81
2018-12-16T12:40:01.368Z,994.92
2018-12-16T12:45:01.646Z,994.91
2018-12-16T12:50:01.906Z,994.9
2018-12-16T12:55:02.158Z,994.79
2018-12-16T13:00:01.436Z,994.99
2018-12-16T13:05:01.696Z,994.93
2018-12-16T13:10:01.973Z,994.97
2018-12-16T13:15:02.265Z,995.11
2018-12-16T13:20:01.545Z,995.12
2018-12-16T13:25:01.832Z,995.06
2018-12-16T13:30:02.069Z,995.1
2018-12-16T13:35:01.372Z,995.17
2018-12-16T13:40:01.636Z,995.23
2018-12-16T13:45:01.877Z,995.2
2018-12-16T13:50:02.219Z,995.26
2018-12-16T13:55:01.498Z,995.17
2018-12-16T14:00:01.780Z,995.28
2018-12-16T14:05:02.111Z,995.29
2018-12-16T14:10:01.380Z,995.35
2018-12-16T14:15:01.670Z,995.26
2018-12-16T14:20:02.037Z,995.24
2018-12-16T14:25:01.288Z,995.15
2018-12-16T14:30:01.581Z,995.16
2018-12-16T14:35:01.850Z,995.28
2018-12-16T14:40:02.091Z,995.26
2018-12-16T14:45:01.351Z,995.46
2018-12-16T14:50:01.664Z,995.48
2018-12-16T14:55:01.941Z,995.49
2018-12-16T15:00:02.155Z,995.53
2018-12-16T15:05:01.538Z,995.52
2018-12-16T15:10:01.848Z,995.48
2018-12-16T15:15:02.072Z,995.52
2018-12-16T15:20:01.366Z,995.6
2018-12-16T15:25:01.653Z,995.57
2018-12-16T15:30:01.941Z,995.54
2018-12-16T15:35:02.193Z,995.64
2018-12-16T15:40:01.529Z,995.7
2018-12-16T15:45:01.825Z,995.72
2018-12-16T15:50:02.095Z,995.79
2018-12-16T15:55:01.353Z,995.82
2018-12-16T16:00:01.620Z,995.91
2018-12-16T16:05:01.879Z,995.99
2018-12-16T16:10:02.116Z,996
2018-12-16T16:15:01.368Z,996.05
2018-12-16T16:20:01.643Z,996.09
2018-12-16T16:25:01.895Z,996.1
2018-12-16T16:30:02.141Z,996.03
2018-12-16T16:35:01.449Z,996.04
2018-12-16T16:40:01.728Z,996.09
2018-12-16T16:45:02.103Z,996.03
2018-12-16T16:50:01.371Z,996.1
2018-12-16T16:55:01.680Z,996.09
2018-12-16T17:00:01.971Z,996.09
2018-12-16T17:05:02.229Z,996.12
2018-12-16T17:10:01.564Z,996.18
2018-12-16T17:15:01.863Z,996.21
2018-12-16T17:20:02.115Z,996.24
2018-12-16T17:25:01.358Z,996.23
2018-12-16T17:30:02.448Z,996.34
2018-12-16T17:35:01.747Z,996.37
2018-12-16T17:40:02.018Z,996.34
2018-12-16T17:45:01.314Z,996.37
2018-12-16T17:50:01.600Z,996.41
2018-12-16T17:55:01.886Z,996.41
2018-12-16T18:00:02.144Z,996.42
2018-12-16T18:05:01.464Z,996.55
2018-12-16T18:10:01.765Z,996.57
2018-12-16T18:15:02.052Z,996.59
2018-12-16T18:20:01.517Z,996.61
2018-12-16T18:25:01.814Z,996.66
2018-12-16T18:30:02.058Z,996.72
2018-12-16T18:35:01.369Z,996.67
2018-12-16T18:40:01.675Z,996.67
2018-12-16T18:45:01.948Z,996.7
2018-12-16T18:50:02.166Z,996.68
2018-12-16T18:55:01.440Z,996.75
2018-12-16T19:00:01.751Z,996.77
2018-12-16T19:05:01.994Z,996.83
2018-12-16T19:10:01.263Z,996.9
2018-12-16T19:15:01.543Z,996.89
2018-12-16T19:20:01.844Z,996.87
2018-12-16T19:25:02.077Z,996.95
2018-12-16T19:30:01.361Z,996.85
2018-12-16T19:35:01.684Z,996.94
2018-12-16T19:40:01.974Z,996.95
2018-12-16T19:45:02.186Z,997.01
2018-12-16T19:50:01.459Z,997.13
2018-12-16T19:55:01.736Z,997.26
2018-12-16T20:00:02.033Z,997.22
2018-12-16T20:05:01.413Z,997.24
2018-12-16T20:10:01.700Z,997.24
2018-12-16T20:15:01.971Z,997.25
2018-12-16T20:20:02.216Z,997.23
2018-12-16T20:25:01.503Z,997.24
2018-12-16T20:30:01.772Z,997.27
2018-12-16T20:35:02.003Z,997.4
2018-12-16T20:40:01.253Z,997.47
2018-12-16T20:45:01.488Z,997.54
2018-12-16T20:50:01.713Z,997.67
2018-12-16T20:55:01.929Z,997.61
2018-12-16T21:00:02.172Z,997.59
2018-12-16T21:05:01.392Z,997.55
2018-12-16T21:10:01.668Z,997.55
2018-12-16T21:15:02.114Z,997.62
2018-12-16T21:20:01.323Z,997.59
2018-12-16T21:25:01.542Z,997.55
2018-12-16T21:30:01.769Z,997.53
2018-12-16T21:35:02.013Z,997.46
2018-12-16T21:40:01.319Z,997.53
2018-12-16T21:45:01.607Z,997.57
2018-12-16T21:50:01.846Z,997.67
2018-12-16T21:55:02.090Z,997.72
2018-12-16T22:00:01.317Z,997.79
2018-12-16T22:05:01.545Z,997.78
2018-12-16T22:10:01.754Z,997.78
2018-12-16T22:15:01.996Z,997.87
2018-12-16T22:20:01.221Z,997.97
2018-12-16T22:25:01.440Z,998.04
2018-12-16T22:30:01.695Z,998.03
2018-12-16T22:35:01.979Z,998.06
2018-12-16T22:40:02.451Z,998.11
2018-12-16T22:45:01.798Z,998.08
2018-12-16T22:50:02.013Z,998.11
2018-12-16T22:55:01.274Z,998.11
2018-12-16T23:00:01.511Z,998.08
2018-12-16T23:05:01.773Z,998.05
2018-12-16T23:10:02.011Z,998.08
2018-12-16T23:15:01.253Z,998.15
2018-12-16T23:20:01.524Z,998.07
2018-12-16T23:25:01.775Z,998.06
2018-12-16T23:30:02.046Z,998.04
2018-12-16T23:35:01.371Z,998.08
2018-12-16T23:40:01.636Z,998.02
2018-12-16T23:45:01.915Z,997.94
2018-12-16T23:50:02.164Z,998
2018-12-16T23:55:01.424Z,998
